sensor_id;sensor_type;location;lat;lon;timestamp;P1;durP1;ratioP1;P2;durP2;ratioP2
21416;SDS011;10869;52.238;10.716;2023-08-24T05:14:54;14.33;;;5.47;;
21416;SDS011;10869;52.238;10.716;2023-08-24T05:17:20;8.27;;;5.10;;
21416;SDS011;10869;52.238;10.716;2023-08-24T05:19:50;8.03;;;4.70;;
21416;SDS011;10869;52.238;10.716;2023-08-24T05:22:17;9.03;;;4.67;;
21416;SDS011;10869;52.238;10.716;2023-08-24T05:28:06;8.30;;;4.83;;
21416;SDS011;10869;52.238;10.716;2023-08-24T05:30:31;11.13;;;4.60;;
21416;SDS011;10869;52.238;10.716;2023-08-24T05:32:57;9.00;;;5.40;;
21416;SDS011;10869;52.238;10.716;2023-08-24T05:35:23;9.90;;;4.73;;
21416;SDS011;10869;52.238;10.716;2023-08-24T05:37:51;7.93;;;4.63;;
21416;SDS011;10869;52.238;10.716;2023-08-24T05:40:17;6.90;;;4.10;;
21416;SDS011;10869;52.238;10.716;2023-08-24T05:42:43;7.67;;;4.80;;
21416;SDS011;10869;52.238;10.716;2023-08-24T05:47:43;16.23;;;5.63;;
21416;SDS011;10869;52.238;10.716;2023-08-24T05:50:09;10.47;;;5.03;;
21416;SDS011;10869;52.238;10.716;2023-08-24T06:08:11;8.37;;;4.70;;
21416;SDS011;10869;52.238;10.716;2023-08-24T06:10:37;12.17;;;4.20;;
21416;SDS011;10869;52.238;10.716;2023-08-24T06:16:25;9.13;;;4.40;;
21416;SDS011;10869;52.238;10.716;2023-08-24T06:18:55;9.83;;;4.50;;
21416;SDS011;10869;52.238;10.716;2023-08-24T06:21:24;9.53;;;4.20;;
21416;SDS011;10869;52.238;10.716;2023-08-24T06:27:13;9.73;;;4.77;;
21416;SDS011;10869;52.238;10.716;2023-08-24T06:29:42;7.27;;;3.80;;
21416;SDS011;10869;52.238;10.716;2023-08-24T06:32:08;9.20;;;3.60;;
21416;SDS011;10869;52.238;10.716;2023-08-24T06:34:34;10.13;;;4.47;;
21416;SDS011;10869;52.238;10.716;2023-08-24T06:37:00;8.50;;;4.07;;
21416;SDS011;10869;52.238;10.716;2023-08-24T06:39:28;9.60;;;4.17;;
21416;SDS011;10869;52.238;10.716;2023-08-24T06:41:54;11.67;;;4.60;;
21416;SDS011;10869;52.238;10.716;2023-08-24T06:44:20;11.57;;;4.30;;
21416;SDS011;10869;52.238;10.716;2023-08-24T06:46:48;8.37;;;4.27;;
21416;SDS011;10869;52.238;10.716;2023-08-24T06:49:18;10.57;;;3.90;;
21416;SDS011;10869;52.238;10.716;2023-08-24T06:55:11;7.63;;;3.83;;
21416;SDS011;10869;52.238;10.716;2023-08-24T06:57:37;10.07;;;4.37;;
21416;SDS011;10869;52.238;10.716;2023-08-24T07:00:03;8.33;;;3.80;;
21416;SDS011;10869;52.238;10.716;2023-08-24T07:02:34;11.20;;;4.23;;
21416;SDS011;10869;52.238;10.716;2023-08-24T07:05:02;9.87;;;4.50;;
21416;SDS011;10869;52.238;10.716;2023-08-24T07:07:30;8.67;;;4.27;;
21416;SDS011;10869;52.238;10.716;2023-08-24T07:09:56;9.73;;;3.63;;
21416;SDS011;10869;52.238;10.716;2023-08-24T07:12:28;10.50;;;4.23;;
21416;SDS011;10869;52.238;10.716;2023-08-24T07:14:59;10.87;;;4.13;;
21416;SDS011;10869;52.238;10.716;2023-08-24T07:17:28;7.57;;;3.93;;
21416;SDS011;10869;52.238;10.716;2023-08-24T07:19:54;7.73;;;3.90;;
21416;SDS011;10869;52.238;10.716;2023-08-24T07:22:19;8.23;;;3.50;;
21416;SDS011;10869;52.238;10.716;2023-08-24T07:24:46;9.87;;;4.00;;
21416;SDS011;10869;52.238;10.716;2023-08-24T07:27:17;6.47;;;3.73;;
21416;SDS011;10869;52.238;10.716;2023-08-24T07:38:16;10.90;;;4.37;;
21416;SDS011;10869;52.238;10.716;2023-08-24T07:40:55;9.37;;;4.30;;
21416;SDS011;10869;52.238;10.716;2023-08-24T07:43:43;6.10;;;3.73;;
21416;SDS011;10869;52.238;10.716;2023-08-24T07:46:49;9.13;;;4.43;;
21416;SDS011;10869;52.238;10.716;2023-08-24T07:49:19;8.87;;;3.97;;
21416;SDS011;10869;52.238;10.716;2023-08-24T07:51:47;8.40;;;3.83;;
21416;SDS011;10869;52.238;10.716;2023-08-24T07:54:13;10.23;;;4.97;;
21416;SDS011;10869;52.238;10.716;2023-08-24T07:56:44;8.27;;;3.97;;
21416;SDS011;10869;52.238;10.716;2023-08-24T07:59:21;9.83;;;3.80;;
21416;SDS011;10869;52.238;10.716;2023-08-24T08:01:47;12.40;;;4.50;;
21416;SDS011;10869;52.238;10.716;2023-08-24T11:22:04;8.02;;;2.45;;
21416;SDS011;10869;52.238;10.716;2023-08-24T12:03:26;6.47;;;2.75;;
21416;SDS011;10869;52.238;10.716;2023-08-24T17:14:51;8.75;;;2.65;;
21416;SDS011;10869;52.238;10.716;2023-08-24T17:17:18;5.30;;;2.63;;
21416;SDS011;10869;52.238;10.716;2023-08-24T17:19:44;8.90;;;3.17;;
21416;SDS011;10869;52.238;10.716;2023-08-24T17:22:10;10.63;;;2.50;;
21416;SDS011;10869;52.238;10.716;2023-08-24T17:24:36;7.33;;;2.57;;
21416;SDS011;10869;52.238;10.716;2023-08-24T17:27:02;4.77;;;2.50;;
21416;SDS011;10869;52.238;10.716;2023-08-24T17:29:28;5.13;;;2.57;;
21416;SDS011;10869;52.238;10.716;2023-08-24T17:31:54;7.47;;;2.87;;
21416;SDS011;10869;52.238;10.716;2023-08-24T17:34:20;7.63;;;2.90;;
21416;SDS011;10869;52.238;10.716;2023-08-24T17:36:47;5.80;;;2.53;;
21416;SDS011;10869;52.238;10.716;2023-08-24T17:39:13;7.33;;;2.70;;
21416;SDS011;10869;52.238;10.716;2023-08-24T17:41:39;8.50;;;2.70;;
21416;SDS011;10869;52.238;10.716;2023-08-24T17:50:10;6.80;;;2.23;;
21416;SDS011;10869;52.238;10.716;2023-08-24T17:52:36;5.87;;;2.60;;
21416;SDS011;10869;52.238;10.716;2023-08-24T17:55:01;8.07;;;2.77;;
21416;SDS011;10869;52.238;10.716;2023-08-24T17:57:29;7.47;;;2.47;;
21416;SDS011;10869;52.238;10.716;2023-08-24T17:59:55;4.30;;;2.27;;
21416;SDS011;10869;52.238;10.716;2023-08-24T18:02:24;7.83;;;2.23;;
21416;SDS011;10869;52.238;10.716;2023-08-24T18:04:50;8.07;;;2.30;;
21416;SDS011;10869;52.238;10.716;2023-08-24T18:07:19;5.27;;;1.93;;
21416;SDS011;10869;52.238;10.716;2023-08-24T18:09:45;7.07;;;2.67;;
21416;SDS011;10869;52.238;10.716;2023-08-24T18:12:10;8.57;;;2.10;;
21416;SDS011;10869;52.238;10.716;2023-08-24T18:14:36;8.53;;;2.80;;
21416;SDS011;10869;52.238;10.716;2023-08-24T18:17:02;9.00;;;2.57;;
21416;SDS011;10869;52.238;10.716;2023-08-24T18:19:28;6.07;;;2.73;;
21416;SDS011;10869;52.238;10.716;2023-08-24T18:21:54;6.43;;;2.47;;
21416;SDS011;10869;52.238;10.716;2023-08-24T18:24:19;10.47;;;2.60;;
21416;SDS011;10869;52.238;10.716;2023-08-24T18:26:45;8.93;;;2.43;;
21416;SDS011;10869;52.238;10.716;2023-08-24T18:29:11;11.67;;;2.47;;
21416;SDS011;10869;52.238;10.716;2023-08-24T18:31:37;10.33;;;3.27;;
21416;SDS011;10869;52.238;10.716;2023-08-24T18:34:05;6.70;;;2.67;;
21416;SDS011;10869;52.238;10.716;2023-08-24T18:36:31;6.40;;;2.73;;
21416;SDS011;10869;52.238;10.716;2023-08-24T18:38:57;6.87;;;2.47;;
21416;SDS011;10869;52.238;10.716;2023-08-24T18:41:23;10.47;;;2.40;;
21416;SDS011;10869;52.238;10.716;2023-08-24T18:43:48;9.50;;;2.50;;
21416;SDS011;10869;52.238;10.716;2023-08-24T18:46:14;9.20;;;2.63;;
21416;SDS011;10869;52.238;10.716;2023-08-24T18:48:40;7.80;;;2.80;;
21416;SDS011;10869;52.238;10.716;2023-08-24T18:51:06;6.43;;;2.23;;
21416;SDS011;10869;52.238;10.716;2023-08-24T18:53:31;9.53;;;2.40;;
21416;SDS011;10869;52.238;10.716;2023-08-24T18:55:58;7.30;;;2.80;;
21416;SDS011;10869;52.238;10.716;2023-08-24T18:58:25;10.20;;;2.93;;
21416;SDS011;10869;52.238;10.716;2023-08-24T19:00:58;6.17;;;2.33;;
21416;SDS011;10869;52.238;10.716;2023-08-24T19:03:26;6.03;;;2.60;;
21416;SDS011;10869;52.238;10.716;2023-08-24T19:05:52;11.23;;;3.10;;
21416;SDS011;10869;52.238;10.716;2023-08-24T19:14:17;6.80;;;2.60;;
21416;SDS011;10869;52.238;10.716;2023-08-24T19:16:42;5.77;;;2.60;;
21416;SDS011;10869;52.238;10.716;2023-08-24T19:21:58;5.83;;;2.50;;
21416;SDS011;10869;52.238;10.716;2023-08-24T19:24:24;7.07;;;3.13;;
21416;SDS011;10869;52.238;10.716;2023-08-24T19:26:50;8.83;;;2.77;;
21416;SDS011;10869;52.238;10.716;2023-08-24T19:29:16;5.93;;;2.77;;
21416;SDS011;10869;52.238;10.716;2023-08-24T19:31:41;6.67;;;2.67;;
21416;SDS011;10869;52.238;10.716;2023-08-24T19:34:08;10.40;;;2.70;;
21416;SDS011;10869;52.238;10.716;2023-08-24T19:36:34;9.17;;;2.60;;
21416;SDS011;10869;52.238;10.716;2023-08-24T19:39:00;9.03;;;2.60;;
21416;SDS011;10869;52.238;10.716;2023-08-24T19:41:26;7.40;;;3.03;;
21416;SDS011;10869;52.238;10.716;2023-08-24T19:43:52;7.10;;;2.90;;
21416;SDS011;10869;52.238;10.716;2023-08-24T19:46:18;8.33;;;3.00;;
21416;SDS011;10869;52.238;10.716;2023-08-24T19:48:43;10.27;;;2.90;;
21416;SDS011;10869;52.238;10.716;2023-08-24T19:51:09;6.50;;;2.93;;
21416;SDS011;10869;52.238;10.716;2023-08-24T19:53:37;9.37;;;2.90;;
21416;SDS011;10869;52.238;10.716;2023-08-24T19:56:03;5.90;;;2.73;;
21416;SDS011;10869;52.238;10.716;2023-08-24T19:58:29;7.13;;;2.60;;
21416;SDS011;10869;52.238;10.716;2023-08-24T20:01:01;7.87;;;2.93;;
21416;SDS011;10869;52.238;10.716;2023-08-24T20:03:27;9.23;;;3.50;;
21416;SDS011;10869;52.238;10.716;2023-08-24T20:12:37;11.10;;;3.07;;
21416;SDS011;10869;52.238;10.716;2023-08-24T20:15:03;6.50;;;3.27;;
21416;SDS011;10869;52.238;10.716;2023-08-24T20:20:09;7.20;;;3.40;;
21416;SDS011;10869;52.238;10.716;2023-08-24T20:26:01;7.73;;;3.50;;
21416;SDS011;10869;52.238;10.716;2023-08-24T20:31:25;8.00;;;3.30;;
21416;SDS011;10869;52.238;10.716;2023-08-24T20:33:51;6.67;;;3.33;;
21416;SDS011;10869;52.238;10.716;2023-08-24T20:36:17;6.90;;;3.00;;
21416;SDS011;10869;52.238;10.716;2023-08-24T20:45:15;11.13;;;3.80;;
21416;SDS011;10869;52.238;10.716;2023-08-24T20:47:44;7.07;;;3.77;;
21416;SDS011;10869;52.238;10.716;2023-08-24T20:53:18;7.90;;;3.87;;
21416;SDS011;10869;52.238;10.716;2023-08-24T20:55:46;11.13;;;3.97;;
21416;SDS011;10869;52.238;10.716;2023-08-24T20:58:12;9.10;;;3.50;;
21416;SDS011;10869;52.238;10.716;2023-08-24T21:00:39;6.70;;;3.50;;
21416;SDS011;10869;52.238;10.716;2023-08-24T21:03:05;5.97;;;3.07;;
21416;SDS011;10869;52.238;10.716;2023-08-24T21:05:31;8.53;;;2.93;;
21416;SDS011;10869;52.238;10.716;2023-08-24T21:07:57;8.63;;;3.60;;
21416;SDS011;10869;52.238;10.716;2023-08-24T21:10:23;9.20;;;3.70;;
21416;SDS011;10869;52.238;10.716;2023-08-24T21:15:35;12.73;;;3.67;;
